sensor_id;sensor_type;location;lat;lon;timestamp;pressure;altitude;pressure_sealevel;temperature;humidity
22018;BME280;11173;51.050;7.108;2022-09-21T00:03:30;100458.09;;;7.29;75.49
22018;BME280;11173;51.050;7.108;2022-09-21T00:08:31;100463.63;;;7.29;74.89
22018;BME280;11173;51.050;7.108;2022-09-21T00:13:33;100453.28;;;7.26;75.04
22018;BME280;11173;51.050;7.108;2022-09-21T00:18:34;100455.22;;;7.22;74.55
22018;BME280;11173;51.050;7.108;2022-09-21T00:23:36;100455.94;;;7.15;75.01
22018;BME280;11173;51.050;7.108;2022-09-21T00:28:37;100463.78;;;7.10;75.50
22018;BME280;11173;51.050;7.108;2022-09-21T00:33:38;100467.75;;;7.09;75.63
22018;BME280;11173;51.050;7.108;2022-09-21T00:38:39;100466.16;;;7.08;76.08
22018;BME280;11173;51.050;7.108;2022-09-21T00:43:44;100474.03;;;7.06;76.04
22018;BME280;11173;51.050;7.108;2022-09-21T00:48:46;100474.38;;;7.01;76.10
22018;BME280;11173;51.050;7.108;2022-09-21T00:53:50;100478.31;;;7.00;76.26
22018;BME280;11173;51.050;7.108;2022-09-21T00:58:53;100482.28;;;6.99;76.36
22018;BME280;11173;51.050;7.108;2022-09-21T01:03:54;100481.84;;;6.96;75.93
22018;BME280;11173;51.050;7.108;2022-09-21T01:08:56;100477.09;;;6.97;75.91
22018;BME280;11173;51.050;7.108;2022-09-21T01:14:20;100471.13;;;6.95;75.89
22018;BME280;11173;51.050;7.108;2022-09-21T01:19:47;100476.56;;;6.88;75.41
22018;BME280;11173;51.050;7.108;2022-09-21T01:25:21;100472.88;;;6.76;76.07
22018;BME280;11173;51.050;7.108;2022-09-21T01:30:23;100475.06;;;6.64;76.46
22018;BME280;11173;51.050;7.108;2022-09-21T01:35:32;100479.75;;;6.60;77.38
22018;BME280;11173;51.050;7.108;2022-09-21T01:40:37;100478.16;;;6.59;76.88
22018;BME280;11173;51.050;7.108;2022-09-21T01:45:46;100476.91;;;6.56;77.42
22018;BME280;11173;51.050;7.108;2022-09-21T01:50:51;100478.41;;;6.50;76.87
22018;BME280;11173;51.050;7.108;2022-09-21T01:55:56;100471.59;;;6.44;77.03
22018;BME280;11173;51.050;7.108;2022-09-21T02:00:57;100482.19;;;6.38;77.29
22018;BME280;11173;51.050;7.108;2022-09-21T02:05:58;100472.53;;;6.28;77.33
22018;BME280;11173;51.050;7.108;2022-09-21T02:11:01;100477.59;;;6.23;77.77
22018;BME280;11173;51.050;7.108;2022-09-21T02:21:33;100478.28;;;6.16;79.38
22018;BME280;11173;51.050;7.108;2022-09-21T02:26:57;100483.81;;;6.16;79.20
22018;BME280;11173;51.050;7.108;2022-09-21T02:37:47;100477.47;;;6.15;78.89
22018;BME280;11173;51.050;7.108;2022-09-21T02:42:57;100465.63;;;6.15;78.13
22018;BME280;11173;51.050;7.108;2022-09-21T02:48:02;100468.75;;;6.13;78.45
22018;BME280;11173;51.050;7.108;2022-09-21T02:53:05;100462.44;;;6.13;77.69
22018;BME280;11173;51.050;7.108;2022-09-21T02:58:11;100471.78;;;6.05;78.31
22018;BME280;11173;51.050;7.108;2022-09-21T03:03:20;100466.19;;;6.01;78.10
22018;BME280;11173;51.050;7.108;2022-09-21T03:08:22;100466.97;;;6.02;77.45
22018;BME280;11173;51.050;7.108;2022-09-21T03:13:23;100468.88;;;5.97;77.22
22018;BME280;11173;51.050;7.108;2022-09-21T03:18:23;100468.38;;;5.92;77.78
22018;BME280;11173;51.050;7.108;2022-09-21T03:23:24;100471.47;;;5.87;77.57
22018;BME280;11173;51.050;7.108;2022-09-21T03:28:25;100472.13;;;5.80;78.25
22018;BME280;11173;51.050;7.108;2022-09-21T03:33:25;100478.44;;;5.81;78.01
22018;BME280;11173;51.050;7.108;2022-09-21T03:38:26;100479.50;;;5.72;78.25
22018;BME280;11173;51.050;7.108;2022-09-21T03:43:26;100477.78;;;5.64;78.53
22018;BME280;11173;51.050;7.108;2022-09-21T03:48:26;100483.72;;;5.66;78.02
22018;BME280;11173;51.050;7.108;2022-09-21T03:53:27;100474.94;;;5.61;78.35
22018;BME280;11173;51.050;7.108;2022-09-21T03:58:27;100474.13;;;5.60;78.09
22018;BME280;11173;51.050;7.108;2022-09-21T04:03:28;100477.34;;;5.62;77.97
22018;BME280;11173;51.050;7.108;2022-09-21T04:08:29;100462.28;;;5.60;77.97
22018;BME280;11173;51.050;7.108;2022-09-21T04:13:31;100471.81;;;5.62;78.11
22018;BME280;11173;51.050;7.108;2022-09-21T04:18:35;100474.13;;;5.60;78.01
22018;BME280;11173;51.050;7.108;2022-09-21T04:23:36;100477.69;;;5.61;78.24
22018;BME280;11173;51.050;7.108;2022-09-21T04:28:37;100474.56;;;5.62;78.36
22018;BME280;11173;51.050;7.108;2022-09-21T04:33:37;100473.41;;;5.63;78.34
22018;BME280;11173;51.050;7.108;2022-09-21T04:38:37;100486.06;;;5.64;77.81
22018;BME280;11173;51.050;7.108;2022-09-21T04:43:46;100486.06;;;5.64;77.93
22018;BME280;11173;51.050;7.108;2022-09-21T04:48:47;100482.00;;;5.58;77.58
22018;BME280;11173;51.050;7.108;2022-09-21T04:53:47;100478.69;;;5.49;78.17
22018;BME280;11173;51.050;7.108;2022-09-21T04:58:47;100486.47;;;5.43;78.35
22018;BME280;11173;51.050;7.108;2022-09-21T05:03:48;100497.41;;;5.40;78.25
22018;BME280;11173;51.050;7.108;2022-09-21T05:08:48;100494.94;;;5.34;78.51
22018;BME280;11173;51.050;7.108;2022-09-21T05:14:08;100492.47;;;5.29;78.57
22018;BME280;11173;51.050;7.108;2022-09-21T05:19:08;100491.63;;;5.25;79.06
22018;BME280;11173;51.050;7.108;2022-09-21T05:24:09;100500.69;;;5.26;79.25
22018;BME280;11173;51.050;7.108;2022-09-21T05:29:09;100507.00;;;5.26;78.92
22018;BME280;11173;51.050;7.108;2022-09-21T05:34:20;100512.09;;;5.24;79.01
22018;BME280;11173;51.050;7.108;2022-09-21T05:39:24;100518.81;;;5.23;79.02
22018;BME280;11173;51.050;7.108;2022-09-21T05:44:24;100521.19;;;5.25;79.03
22018;BME280;11173;51.050;7.108;2022-09-21T05:49:46;100520.09;;;5.29;79.34
22018;BME280;11173;51.050;7.108;2022-09-21T05:55:28;100520.91;;;5.30;79.93
22018;BME280;11173;51.050;7.108;2022-09-21T06:00:51;100525.94;;;5.44;80.01
22018;BME280;11173;51.050;7.108;2022-09-21T06:05:56;100540.19;;;5.65;79.00
22018;BME280;11173;51.050;7.108;2022-09-21T06:10:57;100547.16;;;5.78;78.14
22018;BME280;11173;51.050;7.108;2022-09-21T06:16:00;100553.63;;;5.86;78.02
22018;BME280;11173;51.050;7.108;2022-09-21T06:21:01;100556.81;;;5.88;78.06
22018;BME280;11173;51.050;7.108;2022-09-21T06:26:01;100560.88;;;5.94;78.41
22018;BME280;11173;51.050;7.108;2022-09-21T06:31:02;100558.69;;;6.04;78.51
22018;BME280;11173;51.050;7.108;2022-09-21T06:36:02;100555.31;;;6.14;79.13
22018;BME280;11173;51.050;7.108;2022-09-21T06:41:03;100559.50;;;6.27;79.15
22018;BME280;11173;51.050;7.108;2022-09-21T06:46:04;100556.19;;;6.41;79.40
22018;BME280;11173;51.050;7.108;2022-09-21T06:51:05;100561.22;;;6.59;78.92
22018;BME280;11173;51.050;7.108;2022-09-21T06:56:07;100569.75;;;6.73;79.40
22018;BME280;11173;51.050;7.108;2022-09-21T07:01:09;100571.94;;;6.87;79.98
22018;BME280;11173;51.050;7.108;2022-09-21T07:06:10;100567.03;;;7.03;79.50
22018;BME280;11173;51.050;7.108;2022-09-21T07:11:13;100566.47;;;7.21;79.36
22018;BME280;11173;51.050;7.108;2022-09-21T07:16:14;100574.25;;;7.38;78.66
22018;BME280;11173;51.050;7.108;2022-09-21T07:21:15;100579.19;;;7.52;77.94
22018;BME280;11173;51.050;7.108;2022-09-21T07:26:16;100574.56;;;7.63;77.67
22018;BME280;11173;51.050;7.108;2022-09-21T07:31:16;100573.91;;;7.73;77.14
22018;BME280;11173;51.050;7.108;2022-09-21T07:36:16;100577.59;;;7.85;76.77
22018;BME280;11173;51.050;7.108;2022-09-21T07:41:17;100576.50;;;7.93;76.51
22018;BME280;11173;51.050;7.108;2022-09-21T07:46:17;100572.25;;;8.03;76.37
22018;BME280;11173;51.050;7.108;2022-09-21T07:51:19;100574.69;;;8.11;76.47
22018;BME280;11173;51.050;7.108;2022-09-21T07:56:20;100572.78;;;8.19;76.27
22018;BME280;11173;51.050;7.108;2022-09-21T08:01:20;100573.66;;;8.27;75.98
22018;BME280;11173;51.050;7.108;2022-09-21T08:06:22;100570.56;;;8.35;75.94
22018;BME280;11173;51.050;7.108;2022-09-21T08:11:24;100575.00;;;8.44;75.98
22018;BME280;11173;51.050;7.108;2022-09-21T08:16:26;100578.25;;;8.53;75.97
22018;BME280;11173;51.050;7.108;2022-09-21T08:21:26;100576.75;;;8.63;75.80
22018;BME280;11173;51.050;7.108;2022-09-21T08:26:27;100585.94;;;8.74;75.98
22018;BME280;11173;51.050;7.108;2022-09-21T08:31:27;100578.88;;;8.84;75.65
22018;BME280;11173;51.050;7.108;2022-09-21T08:36:29;100594.06;;;8.93;75.66
22018;BME280;11173;51.050;7.108;2022-09-21T08:46:40;100583.09;;;9.15;75.69
22018;BME280;11173;51.050;7.108;2022-09-21T08:51:55;100580.03;;;9.34;75.68
22018;BME280;11173;51.050;7.108;2022-09-21T08:56:56;100589.63;;;9.48;75.13
22018;BME280;11173;51.050;7.108;2022-09-21T09:02:09;100580.53;;;9.62;75.02
22018;BME280;11173;51.050;7.108;2022-09-21T09:12:53;100592.97;;;9.89;74.83
22018;BME280;11173;51.050;7.108;2022-09-21T09:18:26;100579.47;;;10.06;74.35
22018;BME280;11173;51.050;7.108;2022-09-21T09:23:35;100585.09;;;10.17;74.38
22018;BME280;11173;51.050;7.108;2022-09-21T09:34:33;100585.94;;;10.35;74.32
22018;BME280;11173;51.050;7.108;2022-09-21T09:39:34;100585.53;;;10.44;74.45
22018;BME280;11173;51.050;7.108;2022-09-21T09:45:12;100583.56;;;10.55;74.44
22018;BME280;11173;51.050;7.108;2022-09-21T09:50:34;100574.00;;;10.67;74.72
22018;BME280;11173;51.050;7.108;2022-09-21T09:55:42;100565.63;;;10.81;74.57
22018;BME280;11173;51.050;7.108;2022-09-21T10:00:46;100570.00;;;10.93;74.27
22018;BME280;11173;51.050;7.108;2022-09-21T10:05:47;100569.94;;;11.11;74.05
22018;BME280;11173;51.050;7.108;2022-09-21T10:10:47;100572.31;;;11.30;73.82
22018;BME280;11173;51.050;7.108;2022-09-21T10:15:53;100563.88;;;11.48;74.38
22018;BME280;11173;51.050;7.108;2022-09-21T10:26:17;100560.88;;;11.95;73.47
22018;BME280;11173;51.050;7.108;2022-09-21T10:31:21;100555.13;;;12.20;73.74
22018;BME280;11173;51.050;7.108;2022-09-21T10:36:33;100560.88;;;12.51;70.94
22018;BME280;11173;51.050;7.108;2022-09-21T10:41:36;100552.28;;;12.80;72.60
22018;BME280;11173;51.050;7.108;2022-09-21T10:46:36;100554.84;;;13.01;69.90
22018;BME280;11173;51.050;7.108;2022-09-21T10:51:37;100552.19;;;13.25;71.07
22018;BME280;11173;51.050;7.108;2022-09-21T10:56:50;100554.78;;;13.43;68.95
22018;BME280;11173;51.050;7.108;2022-09-21T11:01:54;100549.50;;;13.52;62.70
22018;BME280;11173;51.050;7.108;2022-09-21T11:07:09;100543.31;;;13.64;66.16
22018;BME280;11173;51.050;7.108;2022-09-21T11:18:10;100543.81;;;13.90;67.65
22018;BME280;11173;51.050;7.108;2022-09-21T11:23:57;100539.50;;;14.09;68.58
22018;BME280;11173;51.050;7.108;2022-09-21T11:29:10;100532.31;;;14.35;68.47
22018;BME280;11173;51.050;7.108;2022-09-21T11:34:28;100520.25;;;14.62;55.88
22018;BME280;11173;51.050;7.108;2022-09-21T11:40:22;100517.19;;;15.00;64.72
22018;BME280;11173;51.050;7.108;2022-09-21T11:44:58;100514.66;;;15.45;67.28
22018;BME280;11173;51.050;7.108;2022-09-21T11:56:04;100513.16;;;16.30;66.45
22018;BME280;11173;51.050;7.108;2022-09-21T12:07:06;100502.97;;;16.98;64.62
22018;BME280;11173;51.050;7.108;2022-09-21T12:12:19;100494.69;;;17.07;56.96
22018;BME280;11173;51.050;7.108;2022-09-21T12:23:04;100499.31;;;16.68;49.04
22018;BME280;11173;51.050;7.108;2022-09-21T12:28:19;100478.28;;;16.44;44.05
22018;BME280;11173;51.050;7.108;2022-09-21T12:33:42;100496.22;;;16.34;44.70
22018;BME280;11173;51.050;7.108;2022-09-21T12:38:57;100484.78;;;16.08;43.82
22018;BME280;11173;51.050;7.108;2022-09-21T12:44:17;100488.38;;;15.92;49.40
22018;BME280;11173;51.050;7.108;2022-09-21T12:49:25;100482.72;;;15.76;47.54
22018;BME280;11173;51.050;7.108;2022-09-21T12:54:44;100490.56;;;15.64;43.89
22018;BME280;11173;51.050;7.108;2022-09-21T13:10:22;100480.06;;;15.68;50.32
22018;BME280;11173;51.050;7.108;2022-09-21T13:15:32;100476.72;;;15.74;50.08
22018;BME280;11173;51.050;7.108;2022-09-21T13:20:40;100477.41;;;15.81;48.37
22018;BME280;11173;51.050;7.108;2022-09-21T13:26:05;100471.78;;;15.98;54.18
22018;BME280;11173;51.050;7.108;2022-09-21T13:36:31;100459.75;;;16.30;52.10
22018;BME280;11173;51.050;7.108;2022-09-21T13:41:31;100466.06;;;16.34;49.95
22018;BME280;11173;51.050;7.108;2022-09-21T13:51:59;100459.81;;;16.26;49.25
22018;BME280;11173;51.050;7.108;2022-09-21T13:57:17;100454.56;;;16.12;48.83
22018;BME280;11173;51.050;7.108;2022-09-21T14:02:27;100444.19;;;15.93;45.63
22018;BME280;11173;51.050;7.108;2022-09-21T14:07:32;100442.69;;;15.71;45.79
22018;BME280;11173;51.050;7.108;2022-09-21T14:12:39;100427.09;;;15.50;49.84
22018;BME280;11173;51.050;7.108;2022-09-21T14:17:44;100436.63;;;15.37;47.52
22018;BME280;11173;51.050;7.108;2022-09-21T14:23:27;100436.94;;;15.22;51.62
22018;BME280;11173;51.050;7.108;2022-09-21T14:28:34;100436.09;;;15.05;46.63
22018;BME280;11173;51.050;7.108;2022-09-21T14:33:44;100432.44;;;14.88;44.18
22018;BME280;11173;51.050;7.108;2022-09-21T14:38:49;100432.63;;;14.78;50.63
22018;BME280;11173;51.050;7.108;2022-09-21T14:43:53;100434.47;;;14.64;51.12
22018;BME280;11173;51.050;7.108;2022-09-21T14:54:21;100414.09;;;14.40;53.23
22018;BME280;11173;51.050;7.108;2022-09-21T14:59:54;100407.88;;;14.29;53.97
22018;BME280;11173;51.050;7.108;2022-09-21T15:05:32;100410.47;;;14.20;54.68
22018;BME280;11173;51.050;7.108;2022-09-21T15:11:01;100409.75;;;14.16;55.50
22018;BME280;11173;51.050;7.108;2022-09-21T15:21:29;100395.16;;;14.24;56.24
22018;BME280;11173;51.050;7.108;2022-09-21T15:26:32;100390.22;;;14.32;56.63
22018;BME280;11173;51.050;7.108;2022-09-21T15:31:34;100387.25;;;14.39;56.81
22018;BME280;11173;51.050;7.108;2022-09-21T15:36:38;100379.53;;;14.47;55.03
22018;BME280;11173;51.050;7.108;2022-09-21T15:41:42;100383.84;;;14.51;52.11
22018;BME280;11173;51.050;7.108;2022-09-21T15:46:51;100378.50;;;14.57;54.51
22018;BME280;11173;51.050;7.108;2022-09-21T15:57:03;100381.63;;;14.63;54.55
22018;BME280;11173;51.050;7.108;2022-09-21T16:02:16;100380.84;;;14.62;54.05
22018;BME280;11173;51.050;7.108;2022-09-21T16:07:32;100367.22;;;14.61;55.08
22018;BME280;11173;51.050;7.108;2022-09-21T16:12:44;100370.91;;;14.58;55.23
22018;BME280;11173;51.050;7.108;2022-09-21T16:17:57;100370.97;;;14.54;56.68
22018;BME280;11173;51.050;7.108;2022-09-21T16:23:10;100364.22;;;14.51;56.62
22018;BME280;11173;51.050;7.108;2022-09-21T16:38:37;100377.34;;;14.35;56.23
22018;BME280;11173;51.050;7.108;2022-09-21T16:43:39;100381.94;;;14.25;56.53
22018;BME280;11173;51.050;7.108;2022-09-21T16:48:43;100381.78;;;14.12;56.20
22018;BME280;11173;51.050;7.108;2022-09-21T16:53:44;100382.81;;;13.98;56.81
22018;BME280;11173;51.050;7.108;2022-09-21T16:58:44;100373.47;;;13.81;56.55
22018;BME280;11173;51.050;7.108;2022-09-21T17:03:45;100381.72;;;13.65;57.25
22018;BME280;11173;51.050;7.108;2022-09-21T17:08:47;100378.00;;;13.48;57.03
22018;BME280;11173;51.050;7.108;2022-09-21T17:13:49;100376.59;;;13.32;56.68
22018;BME280;11173;51.050;7.108;2022-09-21T17:18:52;100377.66;;;13.15;57.04
22018;BME280;11173;51.050;7.108;2022-09-21T17:23:52;100386.28;;;12.97;56.87
22018;BME280;11173;51.050;7.108;2022-09-21T17:28:53;100386.50;;;12.79;57.24
22018;BME280;11173;51.050;7.108;2022-09-21T17:33:53;100399.88;;;12.61;57.18
22018;BME280;11173;51.050;7.108;2022-09-21T17:38:56;100394.88;;;12.41;57.34
22018;BME280;11173;51.050;7.108;2022-09-21T17:49:24;100392.00;;;12.10;57.86
22018;BME280;11173;51.050;7.108;2022-09-21T17:54:24;100392.53;;;11.94;57.88
22018;BME280;11173;51.050;7.108;2022-09-21T17:59:30;100395.03;;;11.82;57.58
22018;BME280;11173;51.050;7.108;2022-09-21T18:04:31;100389.56;;;11.67;58.05
22018;BME280;11173;51.050;7.108;2022-09-21T18:09:34;100404.38;;;11.53;57.86
22018;BME280;11173;51.050;7.108;2022-09-21T18:20:09;100407.28;;;11.35;57.75
22018;BME280;11173;51.050;7.108;2022-09-21T18:25:22;100404.16;;;11.26;56.34
22018;BME280;11173;51.050;7.108;2022-09-21T18:30:25;100405.81;;;11.13;57.10
22018;BME280;11173;51.050;7.108;2022-09-21T18:46:01;100406.38;;;10.75;56.00
22018;BME280;11173;51.050;7.108;2022-09-21T18:51:20;100415.56;;;10.62;56.57
22018;BME280;11173;51.050;7.108;2022-09-21T18:56:23;100404.84;;;10.49;57.07
22018;BME280;11173;51.050;7.108;2022-09-21T19:01:24;100413.25;;;10.39;56.48
22018;BME280;11173;51.050;7.108;2022-09-21T19:22:30;100404.88;;;9.92;59.60
22018;BME280;11173;51.050;7.108;2022-09-21T19:28:14;100410.47;;;9.85;59.59
22018;BME280;11173;51.050;7.108;2022-09-21T19:33:18;100406.50;;;9.79;60.20
22018;BME280;11173;51.050;7.108;2022-09-21T19:38:20;100404.91;;;9.70;60.37
22018;BME280;11173;51.050;7.108;2022-09-21T19:48:41;100402.91;;;9.60;60.60
22018;BME280;11173;51.050;7.108;2022-09-21T19:53:42;100405.66;;;9.53;60.69
22018;BME280;11173;51.050;7.108;2022-09-21T19:59:01;100402.47;;;9.47;61.02
22018;BME280;11173;51.050;7.108;2022-09-21T20:04:38;100408.44;;;9.42;61.13
22018;BME280;11173;51.050;7.108;2022-09-21T20:09:54;100401.25;;;9.38;61.66
22018;BME280;11173;51.050;7.108;2022-09-21T20:15:05;100411.56;;;9.33;62.07
22018;BME280;11173;51.050;7.108;2022-09-21T20:20:21;100406.81;;;9.27;62.48
22018;BME280;11173;51.050;7.108;2022-09-21T20:30:31;100394.84;;;9.12;62.66
22018;BME280;11173;51.050;7.108;2022-09-21T20:35:33;100402.78;;;9.06;62.79
22018;BME280;11173;51.050;7.108;2022-09-21T20:40:34;100397.97;;;9.00;62.99
22018;BME280;11173;51.050;7.108;2022-09-21T20:45:35;100401.94;;;8.95;63.21
22018;BME280;11173;51.050;7.108;2022-09-21T20:50:35;100387.56;;;8.86;63.21
22018;BME280;11173;51.050;7.108;2022-09-21T20:55:36;100399.06;;;8.77;63.56
22018;BME280;11173;51.050;7.108;2022-09-21T21:00:36;100397.81;;;8.67;64.23
22018;BME280;11173;51.050;7.108;2022-09-21T21:05:37;100392.63;;;8.59;64.30
22018;BME280;11173;51.050;7.108;2022-09-21T21:10:43;100396.94;;;8.52;64.56
22018;BME280;11173;51.050;7.108;2022-09-21T21:15:43;100395.72;;;8.46;64.67
22018;BME280;11173;51.050;7.108;2022-09-21T21:20:44;100400.06;;;8.44;65.03
22018;BME280;11173;51.050;7.108;2022-09-21T21:25:44;100388.94;;;8.40;64.73
22018;BME280;11173;51.050;7.108;2022-09-21T21:30:51;100402.00;;;8.32;65.37
22018;BME280;11173;51.050;7.108;2022-09-21T21:35:51;100397.56;;;8.24;65.71
22018;BME280;11173;51.050;7.108;2022-09-21T21:40:54;100396.72;;;8.20;65.56
22018;BME280;11173;51.050;7.108;2022-09-21T21:45:54;100396.72;;;8.16;65.53
22018;BME280;11173;51.050;7.108;2022-09-21T21:50:58;100398.69;;;8.12;65.84
22018;BME280;11173;51.050;7.108;2022-09-21T21:56:11;100394.28;;;8.08;66.48
22018;BME280;11173;51.050;7.108;2022-09-21T22:01:18;100397.38;;;7.99;66.55
22018;BME280;11173;51.050;7.108;2022-09-21T22:06:20;100401.31;;;7.94;66.77
22018;BME280;11173;51.050;7.108;2022-09-21T22:11:21;100391.78;;;7.92;66.86
22018;BME280;11173;51.050;7.108;2022-09-21T22:16:24;100397.69;;;7.87;67.54
22018;BME280;11173;51.050;7.108;2022-09-21T22:21:28;100394.13;;;7.90;66.80
22018;BME280;11173;51.050;7.108;2022-09-21T22:26:31;100387.84;;;7.93;66.43
22018;BME280;11173;51.050;7.108;2022-09-21T22:31:37;100389.00;;;7.92;66.47
22018;BME280;11173;51.050;7.108;2022-09-21T22:36:38;100381.09;;;7.90;66.58
22018;BME280;11173;51.050;7.108;2022-09-21T22:41:40;100387.41;;;7.91;66.83
22018;BME280;11173;51.050;7.108;2022-09-21T22:46:41;100386.22;;;7.92;66.58
22018;BME280;11173;51.050;7.108;2022-09-21T22:51:41;100386.19;;;7.85;66.87
22018;BME280;11173;51.050;7.108;2022-09-21T22:56:41;100385.78;;;7.83;66.93
22018;BME280;11173;51.050;7.108;2022-09-21T23:01:42;100380.63;;;7.85;66.86
22018;BME280;11173;51.050;7.108;2022-09-21T23:06:43;100376.25;;;7.84;67.01
22018;BME280;11173;51.050;7.108;2022-09-21T23:11:47;100372.66;;;7.80;67.46
22018;BME280;11173;51.050;7.108;2022-09-21T23:16:47;100372.63;;;7.76;67.35
22018;BME280;11173;51.050;7.108;2022-09-21T23:21:49;100375.03;;;7.77;67.17
22018;BME280;11173;51.050;7.108;2022-09-21T23:26:49;100367.88;;;7.76;67.19
22018;BME280;11173;51.050;7.108;2022-09-21T23:31:50;100371.00;;;7.71;67.18
22018;BME280;11173;51.050;7.108;2022-09-21T23:36:51;100378.13;;;7.69;67.32
22018;BME280;11173;51.050;7.108;2022-09-21T23:41:51;100376.84;;;7.59;67.53
22018;BME280;11173;51.050;7.108;2022-09-21T23:46:51;100379.97;;;7.54;68.21
22018;BME280;11173;51.050;7.108;2022-09-21T23:51:52;100374.38;;;7.47;67.92
22018;BME280;11173;51.050;7.108;2022-09-21T23:56:52;100382.22;;;7.41;67.98
